Time;durP1;ratioP1;P1;durP2;ratioP2;P2;SDS_P1;SDS_P2;PMS_P1;PMS_P2;Temp;Humidity;BMP_temperature;BMP_pressure;BME280_temperature;BME280_humidity;BME280_pressure;Samples;Min_cycle;Max_cycle;Signal;HPM_P1;HPM_P2
2021/05/25 05:02:35;;;;;;;2.22;0.60;;;9.70;99.90;;;;;;4917066;29;20044;-86
2021/05/25 05:05:02;;;;;;;3.33;1.15;;;9.70;99.90;;;;;;4918841;29;20139;-87
2021/05/25 05:07:29;;;;;;;2.95;0.70;;;10.00;99.90;;;;;;4917122;29;20056;-87
2021/05/25 05:09:55;;;;;;;3.25;0.60;;;10.50;99.90;;;;;;4918702;29;20094;-86
2021/05/25 05:12:22;;;;;;;4.10;0.80;;;10.30;99.90;;;;;;4918191;29;20135;-88
2021/05/25 05:14:48;;;;;;;3.47;1.02;;;10.40;99.90;;;;;;4918380;29;20052;-87
2021/05/25 05:17:16;;;;;;;4.35;0.90;;;10.20;99.90;;;;;;4918593;29;20052;-86
2021/05/25 05:19:44;;;;;;;1.30;0.50;;;10.00;99.90;;;;;;5046051;23;20074;-80
2021/05/25 05:22:10;;;;;;;2.60;0.80;;;10.10;99.90;;;;;;4955996;29;20055;-79
2021/05/25 05:24:37;;;;;;;2.17;0.70;;;9.90;99.90;;;;;;4956225;29;20071;-77
2021/05/25 05:27:04;;;;;;;2.88;0.80;;;10.00;99.10;;;;;;4955776;29;20086;-78
2021/05/25 05:29:31;;;;;;;1.48;0.50;;;10.20;99.70;;;;;;4956022;29;20081;-77
2021/05/25 05:31:57;;;;;;;2.50;0.77;;;10.20;99.90;;;;;;4955839;29;20078;-79
2021/05/25 05:34:24;;;;;;;3.30;0.70;;;10.20;99.10;;;;;;4956049;29;20122;-78
2021/05/25 05:36:51;;;;;;;4.57;0.90;;;10.10;98.80;;;;;;4955701;29;20126;-79
2021/05/25 05:39:18;;;;;;;5.22;1.05;;;10.20;98.50;;;;;;4957188;29;20087;-75
2021/05/25 05:41:45;;;;;;;2.28;0.60;;;10.30;98.50;;;;;;4955543;29;20110;-77
2021/05/25 05:44:11;;;;;;;3.58;0.63;;;10.10;97.50;;;;;;4955535;29;20090;-77
2021/05/25 05:46:38;;;;;;;4.80;0.80;;;10.20;97.60;;;;;;4955941;29;20094;-78
2021/05/25 05:49:05;;;;;;;2.38;0.70;;;10.30;98.00;;;;;;4955454;29;20054;-78
2021/05/25 05:51:32;;;;;;;4.85;0.90;;;10.50;97.80;;;;;;4955736;29;20488;-78
2021/05/25 05:54:00;;;;;;;2.70;0.70;;;12.00;98.00;;;;;;4955463;29;20094;-79
2021/05/25 05:56:27;;;;;;;2.28;0.52;;;10.00;97.60;;;;;;4957520;29;20051;-78
2021/05/25 05:58:54;;;;;;;2.80;0.70;;;10.50;97.80;;;;;;4957764;29;20047;-78
2021/05/25 06:01:21;;;;;;;3.88;0.77;;;10.90;97.40;;;;;;4955660;29;20132;-78
2021/05/25 06:03:47;;;;;;;2.90;0.82;;;10.30;96.70;;;;;;4955409;29;20051;-78
2021/05/25 06:06:15;;;;;;;2.75;0.68;;;10.30;96.80;;;;;;4955317;29;20062;-77
2021/05/25 06:08:42;;;;;;;3.70;1.23;;;10.30;96.90;;;;;;4955330;29;20083;-78
2021/05/25 06:11:10;;;;;;;3.30;0.60;;;10.30;96.70;;;;;;4955403;29;20055;-78
2021/05/25 06:13:37;;;;;;;3.20;0.75;;;10.40;96.90;;;;;;4955698;29;20112;-78
2021/05/25 06:16:05;;;;;;;2.78;0.60;;;10.50;96.60;;;;;;4955305;29;20134;-78
2021/05/25 06:18:33;;;;;;;2.50;0.60;;;10.60;96.50;;;;;;4955027;28;20061;-78
2021/05/25 06:21:01;;;;;;;2.65;0.50;;;10.70;96.80;;;;;;4955413;29;20511;-79
2021/05/25 06:23:28;;;;;;;2.58;0.65;;;10.70;95.70;;;;;;4955256;29;20047;-78
2021/05/25 06:25:55;;;;;;;3.50;0.90;;;11.00;96.10;;;;;;4955780;29;20070;-80
2021/05/25 06:28:23;;;;;;;2.33;0.80;;;11.40;96.30;;;;;;4955619;29;20058;-79
2021/05/25 06:30:49;;;;;;;1.50;0.45;;;11.00;95.90;;;;;;4955258;29;20499;-80
2021/05/25 06:33:18;;;;;;;2.42;0.65;;;11.00;95.20;;;;;;4955429;29;20090;-79
2021/05/25 06:35:45;;;;;;;3.08;0.57;;;10.90;94.30;;;;;;4954970;29;20145;-79
2021/05/25 06:38:12;;;;;;;4.38;1.35;;;9.90;94.50;;;;;;4955941;29;20082;-79
2021/05/25 06:40:39;;;;;;;1.88;0.50;;;11.00;94.10;;;;;;4956141;29;20093;-80
2021/05/25 06:43:06;;;;;;;2.83;0.50;;;11.00;94.00;;;;;;4954826;29;20059;-80
2021/05/25 06:45:33;;;;;;;1.70;0.50;;;10.70;93.60;;;;;;4955042;29;20133;-79
2021/05/25 06:48:00;;;;;;;2.70;0.70;;;11.20;94.00;;;;;;4955168;29;20471;-76
2021/05/25 06:50:26;;;;;;;3.13;0.50;;;11.10;93.70;;;;;;4955357;29;20083;-79
2021/05/25 06:52:53;;;;;;;1.77;0.60;;;11.40;94.20;;;;;;4954912;29;20089;-80
2021/05/25 06:55:19;;;;;;;3.35;0.82;;;11.40;93.90;;;;;;4955482;29;20101;-80
2021/05/25 06:57:46;;;;;;;1.83;0.68;;;11.50;93.20;;;;;;4955213;29;20142;-78
2021/05/25 07:00:15;;;;;;;2.03;0.60;;;11.30;92.70;;;;;;4955073;29;20547;-78
2021/05/25 07:02:43;;;;;;;1.95;0.70;;;11.50;92.10;;;;;;4954879;29;20109;-78
2021/05/25 07:05:11;;;;;;;2.28;0.50;;;11.40;92.20;;;;;;4954923;29;20086;-77
2021/05/25 07:07:38;;;;;;;1.50;0.50;;;11.60;92.40;;;;;;4954866;29;20197;-78
2021/05/25 07:10:07;;;;;;;2.63;0.65;;;11.60;92.70;;;;;;4955029;29;20093;-78
2021/05/25 07:12:33;;;;;;;2.60;0.40;;;11.60;92.20;;;;;;4954797;29;20090;-77
2021/05/25 07:15:00;;;;;;;3.65;0.88;;;12.00;91.70;;;;;;4954943;29;20078;-78
2021/05/25 07:17:27;;;;;;;1.73;0.50;;;11.60;91.30;;;;;;4954999;29;20134;-77
2021/05/25 07:19:57;;;;;;;4.85;0.80;;;11.60;92.10;;;;;;4955089;29;20091;-77
2021/05/25 07:22:23;;;;;;;2.40;0.45;;;11.80;92.00;;;;;;4956595;29;20047;-78
2021/05/25 07:24:50;;;;;;;2.92;0.70;;;11.70;91.10;;;;;;4955192;29;20052;-79
2021/05/25 07:27:17;;;;;;;2.05;0.57;;;11.60;90.40;;;;;;4955406;29;20138;-78
2021/05/25 07:29:44;;;;;;;2.13;0.50;;;11.80;90.00;;;;;;4956419;28;20089;-78
2021/05/25 07:32:11;;;;;;;4.00;0.80;;;11.60;89.00;;;;;;4958582;29;20131;-78
2021/05/25 07:34:37;;;;;;;2.42;0.55;;;11.70;90.60;;;;;;4958294;29;20142;-80
2021/05/25 07:37:05;;;;;;;2.47;0.70;;;11.70;90.10;;;;;;4958467;29;20130;-79
2021/05/25 07:39:32;;;;;;;2.47;0.70;;;11.60;90.40;;;;;;4958247;29;20187;-78
2021/05/25 07:41:58;;;;;;;1.88;0.70;;;11.70;89.30;;;;;;4958108;29;20043;-75
2021/05/25 07:44:25;;;;;;;3.08;0.70;;;11.80;89.00;;;;;;4957762;29;20081;-77
2021/05/25 07:46:52;;;;;;;2.42;0.50;;;11.90;86.90;;;;;;4957709;29;20484;-79
2021/05/25 07:49:19;;;;;;;3.25;0.52;;;12.00;87.80;;;;;;4957683;29;20067;-78
2021/05/25 07:51:46;;;;;;;3.08;0.60;;;12.00;87.70;;;;;;4958026;29;20051;-78
2021/05/25 07:54:13;;;;;;;3.30;0.65;;;11.20;87.10;;;;;;4957832;29;20474;-77
2021/05/25 07:56:40;;;;;;;3.67;0.68;;;12.20;87.70;;;;;;4957592;29;20516;-78
2021/05/25 07:59:07;;;;;;;4.13;0.90;;;12.50;86.40;;;;;;4957557;29;20090;-76
2021/05/25 08:01:33;;;;;;;3.55;0.90;;;12.30;94.40;;;;;;4957289;29;20504;-77
2021/05/25 08:04:00;;;;;;;3.13;0.73;;;12.40;95.30;;;;;;4957904;29;20079;-79
2021/05/25 08:06:26;;;;;;;3.70;0.80;;;12.40;95.80;;;;;;4957467;29;20083;-77
2021/05/25 08:08:53;;;;;;;4.13;0.57;;;12.30;95.70;;;;;;4957696;29;20143;-78
2021/05/25 08:11:20;;;;;;;3.83;0.75;;;12.60;95.50;;;;;;4957215;29;20519;-80
2021/05/25 08:13:49;;;;;;;2.92;0.65;;;12.60;94.60;;;;;;4957951;29;20082;-80
2021/05/25 08:16:18;;;;;;;2.90;0.70;;;12.60;92.90;;;;;;4957577;29;20057;-78
2021/05/25 08:18:50;;;;;;;4.63;0.80;;;12.50;95.50;;;;;;4957560;29;20051;-78
2021/05/25 08:21:17;;;;;;;2.65;0.70;;;12.60;96.10;;;;;;4957498;29;20531;-78
2021/05/25 08:23:44;;;;;;;3.13;0.60;;;12.60;96.40;;;;;;4957611;29;20079;-75
2021/05/25 08:26:11;;;;;;;3.83;0.80;;;12.60;96.30;;;;;;4957206;29;20047;-78
2021/05/25 08:28:41;;;;;;;3.28;0.60;;;;;;;;;;4957538;29;20059;-78
2021/05/25 08:31:08;;;;;;;4.30;0.73;;;;;;;;;;4957420;29;20133;-79
2021/05/25 08:33:34;;;;;;;3.63;0.90;;;;;;;;;;4957880;29;20150;-78
2021/05/25 08:36:01;;;;;;;4.03;0.80;;;;;;;;;;4957941;29;20139;-76
2021/05/25 08:38:28;;;;;;;2.60;0.60;;;;;;;;;;4957020;29;20047;-77
2021/05/25 08:40:56;;;;;;;3.63;0.77;;;;;;;;;;4957260;28;20130;-77
2021/05/25 08:43:25;;;;;;;3.00;0.80;;;12.90;69.00;;;;;;4957718;29;20074;-78
2021/05/25 08:45:53;;;;;;;2.00;0.60;;;12.80;70.30;;;;;;4957616;29;20085;-78
2021/05/25 08:48:20;;;;;;;2.63;0.60;;;12.80;71.50;;;;;;4957529;29;20145;-76
2021/05/25 08:50:47;;;;;;;3.30;0.70;;;12.80;70.40;;;;;;4957176;29;20055;-75
2021/05/25 08:53:14;;;;;;;2.85;0.60;;;12.80;70.70;;;;;;4956551;29;20094;-78
2021/05/25 08:55:46;;;;;;;3.42;0.70;;;12.80;72.00;;;;;;4957375;29;20130;-78
2021/05/25 08:58:13;;;;;;;3.25;1.08;;;12.80;72.30;;;;;;4957427;29;20052;-78
2021/05/25 09:00:39;;;;;;;3.15;0.85;;;12.90;71.50;;;;;;4956560;29;20193;-78
2021/05/25 09:03:07;;;;;;;4.03;1.00;;;12.90;69.10;;;;;;4957136;29;20083;-76
2021/05/25 09:05:34;;;;;;;5.05;0.80;;;12.90;70.40;;;;;;4957348;29;20503;-76
2021/05/25 09:08:01;;;;;;;2.53;0.57;;;12.80;71.00;;;;;;4956943;29;20173;-77
2021/05/25 09:10:37;;;;;;;3.20;0.55;;;12.80;70.90;;;;;;4956805;29;20079;-75
2021/05/25 09:13:11;;;;;;;4.68;0.80;;;12.80;69.70;;;;;;4956887;29;20075;-77
2021/05/25 09:15:42;;;;;;;1.70;0.50;;;12.80;70.30;;;;;;4957028;28;20107;-78
2021/05/25 09:18:12;;;;;;;4.05;0.80;;;12.80;70.60;;;;;;4956836;29;20055;-78
2021/05/25 09:20:48;;;;;;;1.95;0.60;;;12.90;70.10;;;;;;4956557;29;20511;-75
2021/05/25 09:23:17;;;;;;;3.35;0.70;;;13.00;71.20;;;;;;4956252;29;20055;-77
2021/05/25 09:25:59;;;;;;;2.60;0.40;;;13.00;70.90;;;;;;4956440;29;20530;-76
2021/05/25 09:28:27;;;;;;;3.28;0.60;;;13.10;70.80;;;;;;4956922;29;20133;-77
2021/05/25 09:30:54;;;;;;;2.63;0.80;;;13.10;68.50;;;;;;4956701;29;20095;-79
2021/05/25 09:33:21;;;;;;;2.70;0.60;;;13.20;69.30;;;;;;4956843;29;20047;-78
2021/05/25 09:35:50;;;;;;;3.78;0.80;;;13.20;69.10;;;;;;4956219;29;20054;-77
2021/05/25 09:38:19;;;;;;;2.70;0.80;;;13.20;68.00;;;;;;4955899;29;20051;-78
2021/05/25 09:40:49;;;;;;;2.72;0.70;;;13.20;68.30;;;;;;4956116;29;20415;-78
2021/05/25 09:43:21;;;;;;;4.22;0.80;;;13.30;69.50;;;;;;4956725;29;20090;-76
2021/05/25 09:46:09;;;;;;;3.47;0.70;;;13.40;69.10;;;;;;4956601;29;20385;-78
2021/05/25 09:48:54;;;;;;;4.90;0.75;;;13.50;68.40;;;;;;4957289;29;20059;-77
2021/05/25 09:51:23;;;;;;;3.53;0.60;;;13.50;68.70;;;;;;4957408;29;20087;-78
2021/05/25 09:53:50;;;;;;;2.70;0.55;;;13.40;69.10;;;;;;4956079;28;20075;-77
2021/05/25 09:56:22;;;;;;;2.22;0.82;;;13.40;70.00;;;;;;4955441;29;20087;-75
2021/05/25 09:58:49;;;;;;;4.00;0.82;;;13.30;69.70;;;;;;4956116;29;20130;-77
2021/05/25 10:01:15;;;;;;;3.33;0.82;;;13.10;70.00;;;;;;4956356;29;20134;-77
2021/05/25 10:03:49;;;;;;;2.97;0.60;;;13.00;71.40;;;;;;4956211;29;20191;-77
2021/05/25 10:06:17;;;;;;;3.15;0.70;;;13.00;69.70;;;;;;4955996;29;20051;-75
2021/05/25 10:08:45;;;;;;;3.42;0.60;;;12.90;70.20;;;;;;4956174;29;20441;-78
2021/05/25 10:11:16;;;;;;;2.60;0.80;;;13.00;71.60;;;;;;4955788;29;20134;-75
2021/05/25 10:13:43;;;;;;;4.18;0.95;;;13.00;71.60;;;;;;4956086;29;20228;-76
2021/05/25 10:16:12;;;;;;;2.75;0.63;;;13.00;70.40;;;;;;4955452;29;20134;-78
2021/05/25 10:18:50;;;;;;;3.45;0.93;;;13.00;70.90;;;;;;4955820;29;20417;-76
2021/05/25 10:21:18;;;;;;;5.03;0.90;;;13.00;70.60;;;;;;4955894;29;20110;-76
2021/05/25 10:23:45;;;;;;;1.80;0.60;;;13.00;71.20;;;;;;4955741;29;20049;-77
2021/05/25 10:26:16;;;;;;;2.83;1.00;;;12.90;70.10;;;;;;4955471;29;20074;-77
2021/05/25 10:28:47;;;;;;;2.53;0.73;;;12.90;71.30;;;;;;4955702;29;20463;-77
2021/05/25 10:31:36;;;;;;;3.47;1.00;;;12.90;71.30;;;;;;4955808;29;20051;-79
2021/05/25 10:34:17;;;;;;;3.45;0.70;;;12.90;71.10;;;;;;4951640;28;20059;-76
2021/05/25 10:36:46;;;;;;;3.97;1.33;;;12.90;70.00;;;;;;4956100;29;20508;-75
2021/05/25 10:39:35;;;;;;;5.72;1.80;;;12.90;71.10;;;;;;4955833;29;20094;-78
2021/05/25 10:42:29;;;;;;;7.90;2.70;;;13.00;71.20;;;;;;4955630;29;20057;-77
2021/05/25 10:44:57;;;;;;;3.92;1.17;;;13.10;72.10;;;;;;4955711;29;20130;-75
2021/05/25 10:47:32;;;;;;;3.38;0.60;;;13.10;72.40;;;;;;4956696;29;20360;-77
2021/05/25 10:50:12;;;;;;;;;;;13.20;70.80;;;;;;4955393;29;20110;-78
2021/05/25 10:52:41;;;;;;;4.03;0.75;;;13.30;71.70;;;;;;4955403;29;19922;-78
2021/05/25 10:55:08;;;;;;;3.17;0.73;;;13.40;71.20;;;;;;4955357;29;20411;-78
2021/05/25 10:57:49;;;;;;;2.95;0.60;;;13.50;70.50;;;;;;4955282;29;20086;-78
2021/05/25 11:00:35;;;;;;;2.55;0.63;;;13.60;70.80;;;;;;4955174;29;20055;-77
2021/05/25 11:03:05;;;;;;;2.53;0.70;;;13.70;70.40;;;;;;4955142;29;20051;-77
2021/05/25 11:05:55;;;;;;;5.03;1.10;;;13.80;70.50;;;;;;4958661;28;20156;-77
2021/05/25 11:08:30;;;;;;;3.35;0.88;;;14.00;68.40;;;;;;4958616;29;20070;-74
2021/05/25 11:11:04;;;;;;;2.05;0.63;;;14.10;62.80;;;;;;4958678;29;20551;-78
2021/05/25 11:13:42;;;;;;;4.63;0.95;;;13.90;63.40;;;;;;4958966;29;20117;-77
2021/05/25 11:16:13;;;;;;;2.85;0.80;;;13.90;64.70;;;;;;4953874;29;20089;-77
2021/05/25 11:18:45;;;;;;;5.88;0.90;;;13.90;65.50;;;;;;4958714;29;20134;-77
2021/05/25 11:22:13;;;;;;;3.95;0.77;;;13.90;66.50;;;;;;4958567;29;20055;-77
2021/05/25 11:24:44;;;;;;;3.03;0.70;;;13.90;64.00;;;;;;4958834;29;20050;-76
2021/05/25 11:27:15;;;;;;;2.92;0.70;;;13.90;65.20;;;;;;4942105;29;20138;-75
2021/05/25 11:29:51;;;;;;;3.85;0.73;;;14.00;65.00;;;;;;4958312;29;20444;-76
2021/05/25 11:32:20;;;;;;;3.33;0.75;;;14.10;63.60;;;;;;4958626;29;20464;-77
2021/05/25 11:34:56;;;;;;;3.22;0.90;;;14.10;61.20;;;;;;4958282;29;20047;-77
2021/05/25 11:37:24;;;;;;;3.25;0.75;;;14.10;63.40;;;;;;4958316;29;20134;-77
2021/05/25 11:39:53;;;;;;;2.20;0.63;;;14.10;63.80;;;;;;4958605;29;20054;-77
2021/05/25 11:42:25;;;;;;;3.15;0.88;;;14.30;64.70;;;;;;4958705;29;20043;-77
2021/05/25 11:44:52;;;;;;;2.60;0.68;;;14.40;65.00;;;;;;4957988;29;20071;-77
2021/05/25 11:47:20;;;;;;;3.05;1.00;;;14.50;63.60;;;;;;4957760;29;20101;-76
2021/05/25 11:49:47;;;;;;;4.03;0.93;;;14.50;62.60;;;;;;4957854;29;20143;-78
2021/05/25 11:52:32;;;;;;;3.97;0.90;;;14.60;62.20;;;;;;4957823;29;20110;-77
2021/05/25 11:55:02;;;;;;;2.60;0.80;;;14.50;60.70;;;;;;4957833;29;20055;-76
2021/05/25 11:57:35;;;;;;;5.95;2.60;;;14.50;62.00;;;;;;4957697;29;20134;-77
2021/05/25 12:00:09;;;;;;;2.95;0.70;;;14.50;61.60;;;;;;4957472;29;20138;-76
2021/05/25 12:02:36;;;;;;;2.38;0.90;;;14.50;59.60;;;;;;4957533;29;20512;-76
2021/05/25 12:05:23;;;;;;;4.03;0.90;;;14.50;58.90;;;;;;4957534;29;20087;-78
2021/05/25 12:07:53;;;;;;;3.95;1.00;;;14.30;60.80;;;;;;4957859;29;20051;-76
2021/05/25 12:10:23;;;;;;;3.97;1.00;;;14.30;60.30;;;;;;4957374;29;20074;-78
2021/05/25 12:12:51;;;;;;;3.63;0.75;;;14.30;60.40;;;;;;4957313;29;20086;-78
2021/05/25 12:15:20;;;;;;;3.22;0.85;;;14.30;59.30;;;;;;4956669;28;20051;-77
2021/05/25 12:17:52;;;;;;;3.08;0.85;;;14.30;60.30;;;;;;4956457;29;20097;-77
2021/05/25 12:20:20;;;;;;;2.80;0.88;;;14.40;61.20;;;;;;4956945;29;20500;-76
2021/05/25 12:22:51;;;;;;;3.78;0.90;;;14.50;60.40;;;;;;4957327;28;20472;-75
2021/05/25 12:25:30;;;;;;;3.38;0.80;;;14.60;60.20;;;;;;4957404;29;20043;-77
2021/05/25 12:28:08;;;;;;;2.17;0.68;;;14.60;59.70;;;;;;4959537;29;20047;-76
2021/05/25 12:30:42;;;;;;;2.42;0.60;;;14.80;59.00;;;;;;4958269;29;20047;-77
2021/05/25 12:33:17;;;;;;;4.03;0.90;;;14.90;58.00;;;;;;4957154;29;20484;-76
2021/05/25 12:35:44;;;;;;;;;;;15.00;58.50;;;;;;4957409;29;20310;-76
2021/05/25 12:38:13;;;;;;;2.78;0.80;;;14.90;58.40;;;;;;4955459;28;20743;-78
2021/05/25 12:40:43;;;;;;;3.17;0.70;;;15.00;58.10;;;;;;4955926;29;20048;-76
2021/05/25 12:43:18;;;;;;;2.88;0.80;;;15.00;57.90;;;;;;4964197;29;20521;-77
2021/05/25 12:45:46;;;;;;;3.78;0.80;;;15.00;57.40;;;;;;4963649;29;20292;-75
2021/05/25 12:48:13;;;;;;;2.50;0.63;;;15.10;57.20;;;;;;4966891;29;20047;-77
2021/05/25 12:50:41;;;;;;;2.60;0.68;;;15.10;57.30;;;;;;4969938;29;20047;-77
2021/05/25 12:53:13;;;;;;;3.75;0.80;;;15.10;57.00;;;;;;4958772;29;20249;-78
2021/05/25 12:56:03;;;;;;;3.40;0.70;;;15.00;57.70;;;;;;4955901;29;20488;-77
2021/05/25 12:58:42;;;;;;;2.20;0.65;;;14.90;57.70;;;;;;4954119;29;20055;-75
2021/05/25 13:01:28;;;;;;;3.35;0.80;;;14.70;57.50;;;;;;4954123;29;20051;-77
2021/05/25 13:03:57;;;;;;;2.47;0.70;;;14.60;59.20;;;;;;4954415;29;20460;-77
2021/05/25 13:06:27;;;;;;;4.63;0.77;;;14.50;59.70;;;;;;4954155;29;20087;-77
2021/05/25 13:09:09;;;;;;;5.28;0.90;;;14.40;60.40;;;;;;4954153;29;20138;-79
2021/05/25 13:11:37;;;;;;;2.03;0.60;;;14.40;61.00;;;;;;4954045;29;20055;-78
2021/05/25 13:14:04;;;;;;;3.72;0.80;;;14.30;61.50;;;;;;4954047;29;20155;-78
2021/05/25 13:16:31;;;;;;;4.60;1.13;;;14.40;63.60;;;;;;4953791;29;20051;-77
2021/05/25 13:18:58;;;;;;;2.50;0.60;;;14.60;63.80;;;;;;4953691;29;20054;-77
2021/05/25 13:21:27;;;;;;;2.92;0.85;;;14.80;62.50;;;;;;4953755;29;20137;-75
2021/05/25 13:23:56;;;;;;;4.40;0.80;;;14.90;61.40;;;;;;4953765;29;20460;-78
2021/05/25 13:26:34;;;;;;;3.25;0.75;;;15.20;61.50;;;;;;4953638;28;20569;-77
2021/05/25 13:29:12;;;;;;;4.68;0.90;;;15.40;58.90;;;;;;4954076;29;20063;-77
2021/05/25 13:31:41;;;;;;;3.25;0.90;;;15.60;57.80;;;;;;4953827;29;20055;-78
2021/05/25 13:34:10;;;;;;;5.25;0.93;;;15.70;57.80;;;;;;4953578;29;20601;-78
2021/05/25 13:36:38;;;;;;;4.40;0.90;;;15.60;57.50;;;;;;4953387;29;20078;-78
2021/05/25 13:39:07;;;;;;;4.25;0.88;;;15.60;55.20;;;;;;4953113;29;20130;-77
2021/05/25 13:41:35;;;;;;;3.13;0.80;;;15.50;55.20;;;;;;4953290;29;20452;-77
2021/05/25 13:44:04;;;;;;;3.00;0.82;;;15.60;56.40;;;;;;4953355;29;20481;-77
2021/05/25 13:46:32;;;;;;;3.75;0.82;;;15.70;55.50;;;;;;4953646;29;20501;-76
2021/05/25 13:48:59;;;;;;;3.13;1.10;;;15.90;55.00;;;;;;4953229;28;20102;-77
2021/05/25 13:51:28;;;;;;;3.13;0.70;;;16.10;53.30;;;;;;4936052;29;20129;-78
2021/05/25 13:53:55;;;;;;;2.55;0.80;;;16.20;51.80;;;;;;4936516;29;20411;-78
2021/05/25 13:56:24;;;;;;;1.75;0.68;;;16.30;50.60;;;;;;4953613;29;20078;-78
2021/05/25 13:58:53;;;;;;;2.67;0.70;;;16.50;51.40;;;;;;4953204;29;20048;-77
2021/05/25 14:01:28;;;;;;;1.65;0.60;;;16.70;50.40;;;;;;4953225;29;20051;-76
2021/05/25 14:03:55;;;;;;;1.90;0.70;;;16.70;49.30;;;;;;4953437;29;20047;-77
2021/05/25 14:06:23;;;;;;;2.10;0.70;;;16.70;50.00;;;;;;4952887;28;20054;-76
2021/05/25 14:08:50;;;;;;;3.28;0.80;;;16.70;50.30;;;;;;4953056;29;20087;-77
2021/05/25 14:11:17;;;;;;;3.15;0.77;;;16.80;49.00;;;;;;4956145;29;20059;-76
2021/05/25 14:13:44;;;;;;;2.30;0.50;;;16.90;49.60;;;;;;4953556;29;20058;-78
2021/05/25 14:16:12;;;;;;;1.77;0.60;;;16.90;50.00;;;;;;4953123;28;20085;-79
2021/05/25 14:18:41;;;;;;;2.13;0.57;;;16.80;49.70;;;;;;4952707;29;20134;-76
2021/05/25 14:21:09;;;;;;;4.60;0.85;;;16.80;49.30;;;;;;4952665;29;20071;-77
2021/05/25 14:23:36;;;;;;;5.32;0.70;;;16.70;50.70;;;;;;4953087;29;20047;-77
2021/05/25 14:26:03;;;;;;;3.13;0.70;;;16.70;49.60;;;;;;4952922;28;20516;-78
2021/05/25 14:28:30;;;;;;;2.80;0.68;;;16.70;50.90;;;;;;4952760;29;20047;-75
2021/05/25 14:30:57;;;;;;;3.60;0.90;;;16.80;51.80;;;;;;4952713;29;20082;-78
2021/05/25 14:33:24;;;;;;;2.40;0.57;;;16.90;51.50;;;;;;4952615;29;20558;-76
2021/05/25 14:35:52;;;;;;;3.42;0.80;;;17.20;50.50;;;;;;4935323;29;20055;-76
2021/05/25 14:38:21;;;;;;;2.47;0.70;;;17.30;49.40;;;;;;4952319;28;20134;-77
2021/05/25 14:40:48;;;;;;;2.65;0.52;;;17.50;49.00;;;;;;4956463;29;20051;-76
2021/05/25 14:43:16;;;;;;;3.17;0.63;;;17.60;49.60;;;;;;4956829;28;20055;-78
2021/05/25 14:45:44;;;;;;;4.18;0.93;;;17.60;48.80;;;;;;4956760;29;20050;-77
2021/05/25 14:48:11;;;;;;;1.52;0.50;;;17.60;49.50;;;;;;4956792;29;20134;-78
2021/05/25 14:50:38;;;;;;;3.58;0.80;;;17.60;49.40;;;;;;4956696;29;20104;-77
2021/05/25 14:53:11;;;;;;;2.92;0.77;;;17.70;48.30;;;;;;4956919;29;20093;-76
2021/05/25 14:55:40;;;;;;;4.05;1.00;;;17.70;47.40;;;;;;4956326;29;20155;-79
2021/05/25 14:58:07;;;;;;;3.72;0.70;;;17.60;46.60;;;;;;4956659;29;20078;-80
2021/05/25 15:00:41;;;;;;;3.13;0.70;;;17.40;47.40;;;;;;4955812;28;20059;-78
2021/05/25 15:03:11;;;;;;;2.78;0.60;;;17.30;47.30;;;;;;4925412;29;20083;-78
2021/05/25 15:05:46;;;;;;;2.17;0.70;;;17.20;45.90;;;;;;4956042;29;20098;-78
2021/05/25 15:08:16;;;;;;;3.88;0.80;;;17.10;45.10;;;;;;4955687;28;20063;-77
2021/05/25 15:10:43;;;;;;;1.70;0.55;;;17.00;45.50;;;;;;4955332;28;20083;-76
2021/05/25 15:13:10;;;;;;;2.28;0.68;;;17.00;45.70;;;;;;4954794;29;20094;-77
2021/05/25 15:15:37;;;;;;;2.97;0.55;;;17.00;45.80;;;;;;4955694;29;20489;-79
2021/05/25 15:18:04;;;;;;;2.83;0.60;;;17.00;45.40;;;;;;4938268;29;20047;-79
2021/05/25 15:20:31;;;;;;;2.33;0.63;;;16.90;45.40;;;;;;4947783;29;20054;-79
2021/05/25 15:22:58;;;;;;;1.83;0.50;;;16.90;45.90;;;;;;4955658;29;20078;-76
2021/05/25 15:25:26;;;;;;;2.72;0.70;;;17.30;47.40;;;;;;4954929;29;20093;-77
2021/05/25 15:27:53;;;;;;;2.20;0.90;;;17.50;46.90;;;;;;4954669;29;20051;-78
2021/05/25 15:30:35;;;;;;;2.83;0.80;;;17.70;45.80;;;;;;4954961;28;20128;-77
2021/05/25 15:33:02;;;;;;;2.25;0.73;;;17.70;45.80;;;;;;4955037;28;20560;-77
2021/05/25 15:35:29;;;;;;;2.33;0.73;;;18.00;46.30;;;;;;4954997;29;20125;-78
2021/05/25 15:37:57;;;;;;;2.80;0.70;;;18.10;45.90;;;;;;4953795;28;20138;-78
2021/05/25 15:40:27;;;;;;;2.55;0.70;;;18.10;44.50;;;;;;4954427;28;20087;-79
2021/05/25 15:42:54;;;;;;;1.40;0.50;;;18.10;44.70;;;;;;4957000;28;20051;-77
2021/05/25 15:45:21;;;;;;;3.30;0.95;;;18.00;45.20;;;;;;4965447;28;20130;-79
2021/05/25 15:47:48;;;;;;;2.60;0.80;;;18.00;44.80;;;;;;4941678;29;20078;-78
2021/05/25 15:50:25;;;;;;;2.33;0.60;;;17.80;44.50;;;;;;4968573;28;20126;-76
2021/05/25 15:52:53;;;;;;;3.25;0.60;;;17.80;45.20;;;;;;4941214;28;20062;-77
2021/05/25 15:55:20;;;;;;;2.33;0.75;;;17.70;46.40;;;;;;4970346;28;20098;-76
2021/05/25 15:57:48;;;;;;;2.47;0.75;;;17.60;47.00;;;;;;4958638;28;20087;-77
2021/05/25 16:00:16;;;;;;;3.05;0.70;;;17.60;44.90;;;;;;4961239;28;20170;-76
2021/05/25 16:02:43;;;;;;;4.15;0.88;;;17.40;44.60;;;;;;4966172;28;20053;-78
2021/05/25 16:05:11;;;;;;;3.20;0.80;;;17.20;44.70;;;;;;4944223;28;20137;-77
2021/05/25 16:07:38;;;;;;;4.38;1.00;;;17.00;44.70;;;;;;4953257;28;20055;-77
2021/05/25 16:10:06;;;;;;;3.55;0.80;;;16.90;44.80;;;;;;4954331;28;20154;-77
2021/05/25 16:12:33;;;;;;;2.75;0.80;;;16.80;45.70;;;;;;4947242;29;20075;-79
2021/05/25 16:15:04;;;;;;;3.65;1.05;;;16.70;46.40;;;;;;4937101;29;20047;-77
2021/05/25 16:17:31;;;;;;;2.63;0.70;;;16.60;46.90;;;;;;4946460;29;20083;-76
2021/05/25 16:19:58;;;;;;;2.63;0.80;;;16.60;47.50;;;;;;4954706;28;20091;-78
2021/05/25 16:22:26;;;;;;;3.13;0.85;;;16.50;46.90;;;;;;4954369;29;20484;-77
2021/05/25 16:24:53;;;;;;;4.15;0.70;;;16.50;46.90;;;;;;4950521;29;20114;-76
2021/05/25 16:27:20;;;;;;;3.00;0.73;;;16.50;47.70;;;;;;4953964;29;20051;-79
2021/05/25 16:29:47;;;;;;;3.45;0.80;;;16.50;47.30;;;;;;4959445;28;20580;-77
2021/05/25 16:32:15;;;;;;;4.38;0.90;;;16.50;47.80;;;;;;4935177;29;20079;-77
2021/05/25 16:34:42;;;;;;;2.85;0.70;;;16.60;47.90;;;;;;4953234;28;20047;-78
2021/05/25 16:37:09;;;;;;;4.22;0.93;;;16.90;48.10;;;;;;4951631;28;20467;-78
2021/05/25 16:39:37;;;;;;;3.20;0.90;;;17.40;48.40;;;;;;4949818;29;20104;-77
2021/05/25 16:42:04;;;;;;;3.17;0.80;;;17.70;46.50;;;;;;4949898;29;20134;-78
2021/05/25 16:44:30;;;;;;;2.08;0.65;;;17.80;44.80;;;;;;4949143;28;20047;-78
2021/05/25 16:46:57;;;;;;;2.90;0.65;;;17.80;45.10;;;;;;4950258;28;20426;-78
2021/05/25 16:49:25;;;;;;;2.97;0.80;;;17.70;45.70;;;;;;4949971;29;20102;-78
2021/05/25 16:51:52;;;;;;;3.70;0.85;;;17.90;45.20;;;;;;4949076;29;20132;-79
2021/05/25 16:54:20;;;;;;;3.13;0.75;;;18.10;45.50;;;;;;4950469;29;20047;-78
2021/05/25 16:56:46;;;;;;;3.33;0.90;;;18.30;45.00;;;;;;4935723;29;20051;-78
2021/05/25 16:59:13;;;;;;;2.28;0.70;;;18.30;45.40;;;;;;4953036;29;20130;-78
2021/05/25 17:01:42;;;;;;;3.50;0.73;;;18.20;44.80;;;;;;4952686;28;20048;-78
2021/05/25 17:04:34;;;;;;;3.50;0.80;;;18.10;43.90;;;;;;4948197;29;20039;-75
2021/05/25 17:07:07;;;;;;;3.20;0.60;;;18.00;43.90;;;;;;4935517;29;20070;-78
2021/05/25 17:12:27;;;;;;;3.20;0.82;;;18.30;44.40;;;;;;4949325;29;20081;-76
2021/05/25 17:17:44;;;;;;;4.18;0.90;;;18.50;43.70;;;;;;4948588;29;20078;-78
2021/05/25 17:20:13;;;;;;;10.93;1.30;;;18.40;43.60;;;;;;4931654;29;20051;-78
2021/05/25 17:22:40;;;;;;;5.00;1.00;;;18.30;43.80;;;;;;4948066;29;20154;-77
2021/05/25 17:25:12;;;;;;;4.43;0.70;;;18.20;43.80;;;;;;4948169;29;20039;-77
2021/05/25 17:27:39;;;;;;;3.05;0.93;;;18.10;43.80;;;;;;4947399;29;20106;-78
2021/05/25 17:30:08;;;;;;;3.97;0.80;;;17.80;44.40;;;;;;4956104;28;20055;-81
2021/05/25 17:32:35;;;;;;;5.03;0.93;;;17.50;44.90;;;;;;4957010;28;20051;-82
2021/05/25 17:35:03;;;;;;;3.60;0.73;;;17.30;44.70;;;;;;4946959;28;20078;-82
2021/05/25 17:37:30;;;;;;;4.25;1.15;;;17.10;44.70;;;;;;4961234;28;20121;-83
2021/05/25 17:39:59;;;;;;;3.53;0.80;;;16.80;45.30;;;;;;4938040;28;20137;-81
2021/05/25 17:42:25;;;;;;;3.60;0.80;;;16.60;46.30;;;;;;4957659;28;20126;-79
2021/05/25 17:44:52;;;;;;;2.42;0.70;;;16.40;46.40;;;;;;4957202;28;20138;-79
2021/05/25 17:47:19;;;;;;;3.95;0.98;;;16.30;47.10;;;;;;4955175;28;20050;-82
2021/05/25 17:49:45;;;;;;;4.65;0.90;;;16.20;47.30;;;;;;4957292;28;20134;-81
2021/05/25 17:52:12;;;;;;;3.10;0.65;;;16.20;47.20;;;;;;4958950;28;20074;-79
2021/05/25 17:54:39;;;;;;;3.22;0.80;;;16.10;47.50;;;;;;4957716;28;20142;-79
2021/05/25 17:57:09;;;;;;;4.00;1.00;;;16.00;47.80;;;;;;4955348;28;20520;-78
2021/05/25 17:59:36;;;;;;;3.58;0.73;;;15.90;47.70;;;;;;4956633;28;20047;-77
2021/05/25 18:02:05;;;;;;;3.95;1.08;;;15.90;47.60;;;;;;4955459;28;20098;-78
2021/05/25 18:04:33;;;;;;;2.70;1.13;;;15.90;47.90;;;;;;4957428;28;20087;-78
2021/05/25 18:07:02;;;;;;;3.42;0.93;;;15.80;48.50;;;;;;4959741;28;20399;-76
2021/05/25 18:09:30;;;;;;;3.75;1.00;;;15.80;48.00;;;;;;4959430;28;20055;-78